Time;durP1;ratioP1;P1;durP2;ratioP2;P2;SDS_P1;SDS_P2;PMS_P1;PMS_P2;Temp;Humidity;BMP_temperature;BMP_pressure;BME280_temperature;BME280_humidity;BME280_pressure;Samples;Min_cycle;Max_cycle;Signal;HPM_P1;HPM_P2
2023/08/31 00:18:16;;;;;;;3.85;1.30;;;20.60;99.90;;;;;;4545038;19;20014;-76
2023/08/31 00:19:52;;;;;;;3.17;1.35;;;20.60;99.90;;;;;;4591867;19;20298;-76
2023/08/31 00:21:26;;;;;;;2.45;1.50;;;20.60;99.90;;;;;;4591613;19;20006;-75
2023/08/31 00:23:01;;;;;;;4.78;1.80;;;20.60;99.90;;;;;;4591725;19;20333;-75
2023/08/31 00:24:37;;;;;;;2.17;1.33;;;20.60;99.90;;;;;;4591779;19;20294;-75
2023/08/31 00:26:11;;;;;;;2.75;1.48;;;20.60;99.90;;;;;;4590348;19;20467;-75
2023/08/31 00:27:48;;;;;;;2.35;1.05;;;20.60;99.90;;;;;;4591287;19;20421;-75
2023/08/31 00:29:25;;;;;;;3.13;1.33;;;20.60;99.90;;;;;;4590287;19;20074;-75
2023/08/31 00:31:06;;;;;;;2.97;1.50;;;20.60;99.90;;;;;;4591581;19;20424;-75
2023/08/31 00:32:47;;;;;;;3.25;1.50;;;20.60;99.90;;;;;;4590349;19;20045;-75
2023/08/31 00:34:23;;;;;;;;;;;20.60;99.90;;;;;;4591538;19;20003;-75
2023/08/31 00:36:04;;;;;;;2.25;1.38;;;20.60;99.90;;;;;;4590186;19;19911;-75
2023/08/31 00:37:38;;;;;;;2.22;1.40;;;20.60;99.90;;;;;;4590173;19;20062;-75
2023/08/31 00:39:13;;;;;;;3.00;1.13;;;20.60;99.90;;;;;;4590183;19;19999;-75
2023/08/31 00:40:48;;;;;;;4.63;1.70;;;20.60;99.90;;;;;;4590073;19;19999;-75
2023/08/31 00:42:24;;;;;;;3.45;1.70;;;20.60;99.90;;;;;;4591294;19;19999;-75
2023/08/31 00:44:00;;;;;;;2.83;1.65;;;20.60;99.90;;;;;;4591425;19;20011;-75
2023/08/31 00:45:35;;;;;;;3.30;1.70;;;20.60;99.90;;;;;;4590045;19;20033;-75
2023/08/31 00:47:10;;;;;;;5.70;3.00;;;20.60;99.90;;;;;;4590959;19;20066;-75
2023/08/31 00:48:45;;;;;;;5.20;3.22;;;20.60;99.90;;;;;;4590667;19;20098;-75
2023/08/31 00:50:20;;;;;;;3.55;2.30;;;20.60;99.90;;;;;;4591231;19;20009;-75
2023/08/31 00:51:54;;;;;;;3.80;2.15;;;20.60;99.90;;;;;;4589958;19;20010;-75
2023/08/31 00:53:30;;;;;;;6.13;3.20;;;20.60;99.90;;;;;;4590943;19;20025;-75
2023/08/31 00:55:09;;;;;;;3.28;1.80;;;20.60;99.90;;;;;;4591184;19;20334;-75
2023/08/31 00:56:44;;;;;;;3.22;2.00;;;20.60;99.90;;;;;;4589903;19;20006;-75
2023/08/31 00:58:20;;;;;;;3.33;2.20;;;20.50;99.90;;;;;;4590592;19;20013;-75
2023/08/31 00:59:56;;;;;;;4.13;2.10;;;20.60;99.90;;;;;;4590975;19;20028;-75
2023/08/31 01:01:43;;;;;;;3.47;2.00;;;20.50;99.90;;;;;;4591073;19;20082;-75
2023/08/31 01:03:29;;;;;;;3.47;2.20;;;20.50;99.90;;;;;;4593834;19;20007;-75
2023/08/31 01:05:14;;;;;;;5.40;2.17;;;20.50;99.90;;;;;;4595823;19;20007;-74
2023/08/31 01:06:55;;;;;;;3.47;2.10;;;20.50;99.90;;;;;;4594186;19;20027;-75
2023/08/31 01:08:41;;;;;;;;;;;20.50;99.90;;;;;;4594828;19;20011;-75
2023/08/31 01:10:32;;;;;;;4.35;2.00;;;20.50;99.90;;;;;;4595295;19;19944;-75
2023/08/31 01:12:29;;;;;;;7.90;2.70;;;20.50;99.90;;;;;;4594236;19;20070;-75
2023/08/31 01:14:23;;;;;;;3.40;2.28;;;20.50;99.90;;;;;;4593387;19;20018;-75
2023/08/31 01:15:59;;;;;;;4.70;2.33;;;20.50;99.90;;;;;;4594312;19;20020;-75
2023/08/31 01:17:34;;;;;;;3.05;2.00;;;20.40;99.90;;;;;;4594350;19;20006;-75
2023/08/31 01:19:17;;;;;;;3.35;2.25;;;20.50;99.90;;;;;;4592498;19;20019;-75
2023/08/31 01:21:30;;;;;;;2.40;1.60;;;20.50;99.90;;;;;;4594037;19;20014;-74
2023/08/31 01:23:07;;;;;;;2.20;1.70;;;20.50;99.90;;;;;;4593215;19;20013;-75
2023/08/31 01:24:43;;;;;;;4.25;1.90;;;20.50;99.90;;;;;;4593103;19;20340;-75
2023/08/31 01:26:28;;;;;;;3.03;1.95;;;20.50;99.90;;;;;;4592950;19;20461;-75
2023/08/31 01:28:03;;;;;;;3.55;2.05;;;20.50;99.90;;;;;;4592528;19;20023;-75
2023/08/31 01:29:39;;;;;;;2.95;1.70;;;20.50;99.90;;;;;;4593127;19;20070;-75
2023/08/31 01:31:14;;;;;;;3.40;1.60;;;20.50;99.90;;;;;;4592706;19;20016;-75
2023/08/31 01:32:48;;;;;;;2.65;2.10;;;20.50;99.90;;;;;;4592693;19;20027;-75
2023/08/31 01:34:37;;;;;;;3.03;1.60;;;20.50;99.90;;;;;;4591711;19;20019;-75
2023/08/31 01:36:28;;;;;;;2.70;1.70;;;20.50;99.90;;;;;;4592657;19;19999;-75
2023/08/31 01:38:04;;;;;;;3.30;1.90;;;20.50;99.90;;;;;;4592551;19;20100;-75
2023/08/31 01:39:54;;;;;;;2.67;1.73;;;20.60;99.90;;;;;;4592816;19;20947;-75
2023/08/31 01:41:29;;;;;;;4.05;1.80;;;20.60;99.90;;;;;;4592546;19;20051;-75
2023/08/31 01:43:04;;;;;;;2.95;1.83;;;20.60;99.90;;;;;;4592547;19;20007;-75
2023/08/31 01:44:39;;;;;;;2.60;1.80;;;20.60;99.90;;;;;;4592543;19;20070;-75
2023/08/31 01:46:13;;;;;;;4.75;2.63;;;20.60;99.90;;;;;;4592395;19;20006;-75
2023/08/31 01:47:47;;;;;;;5.40;2.33;;;20.60;99.90;;;;;;4592429;19;19994;-75
2023/08/31 01:49:24;;;;;;;3.08;1.70;;;20.60;99.90;;;;;;4591033;19;20082;-74
2023/08/31 01:50:59;;;;;;;3.17;1.83;;;20.60;99.90;;;;;;4592349;19;20002;-75
2023/08/31 01:52:35;;;;;;;4.68;2.10;;;20.60;99.90;;;;;;4592347;19;20031;-75
2023/08/31 01:54:11;;;;;;;4.43;1.70;;;20.60;99.90;;;;;;4591995;19;20010;-75
2023/08/31 01:55:45;;;;;;;3.65;2.05;;;20.60;99.90;;;;;;4592513;19;20027;-74
2023/08/31 01:57:21;;;;;;;3.03;1.77;;;20.60;99.90;;;;;;4592178;19;20010;-75
2023/08/31 01:58:57;;;;;;;3.65;1.88;;;20.60;99.90;;;;;;4591166;19;20435;-75
2023/08/31 02:00:34;;;;;;;3.67;2.50;;;20.60;99.90;;;;;;4594731;19;20433;-75
2023/08/31 02:02:09;;;;;;;7.18;2.67;;;20.60;99.90;;;;;;4593435;19;20010;-75
2023/08/31 02:03:45;;;;;;;6.57;2.25;;;20.60;99.90;;;;;;4594119;19;20014;-75
2023/08/31 02:05:20;;;;;;;4.47;2.08;;;20.60;99.90;;;;;;4594660;19;20276;-75
2023/08/31 02:06:55;;;;;;;4.78;2.47;;;20.60;99.90;;;;;;4594327;19;20032;-75
2023/08/31 02:08:31;;;;;;;3.95;2.20;;;20.60;99.90;;;;;;4593801;19;20014;-75
2023/08/31 02:10:08;;;;;;;4.05;1.90;;;20.60;99.90;;;;;;4594287;19;20002;-75
2023/08/31 02:11:42;;;;;;;5.22;2.10;;;20.50;99.90;;;;;;4594610;19;20025;-75
2023/08/31 02:13:17;;;;;;;3.28;2.20;;;20.60;99.90;;;;;;4593802;19;20460;-75
2023/08/31 02:14:51;;;;;;;5.78;2.30;;;20.50;99.90;;;;;;4593322;19;20469;-75
2023/08/31 02:16:27;;;;;;;4.78;2.60;;;20.60;99.90;;;;;;4594368;19;20046;-75
2023/08/31 02:18:03;;;;;;;3.95;2.30;;;20.60;99.90;;;;;;4594338;19;20029;-75
2023/08/31 02:19:37;;;;;;;4.13;2.25;;;20.60;99.90;;;;;;4592727;19;20051;-75
2023/08/31 02:21:12;;;;;;;4.53;2.60;;;20.60;99.90;;;;;;4594031;19;20328;-75
2023/08/31 02:22:50;;;;;;;5.22;2.78;;;20.60;99.90;;;;;;4592742;19;20014;-75
2023/08/31 02:24:24;;;;;;;6.93;2.63;;;20.60;99.90;;;;;;4593986;19;20310;-75
2023/08/31 02:25:59;;;;;;;4.35;2.67;;;20.60;99.90;;;;;;4594144;19;20019;-75
2023/08/31 02:27:35;;;;;;;4.57;2.53;;;20.50;99.90;;;;;;4594279;19;20372;-75
2023/08/31 02:29:10;;;;;;;3.40;2.45;;;20.50;99.90;;;;;;4592800;19;20003;-75
2023/08/31 02:30:46;;;;;;;4.47;2.75;;;20.60;99.90;;;;;;4594146;19;20439;-75
2023/08/31 02:32:24;;;;;;;4.43;2.70;;;20.50;99.90;;;;;;4593872;19;20287;-75
2023/08/31 02:33:58;;;;;;;7.30;2.80;;;20.50;99.90;;;;;;4593420;19;20003;-75
2023/08/31 02:35:33;;;;;;;3.88;2.75;;;20.50;99.90;;;;;;4593987;19;20290;-75
2023/08/31 02:37:09;;;;;;;5.75;2.58;;;20.60;99.90;;;;;;4593799;19;20014;-75
2023/08/31 02:38:46;;;;;;;6.72;2.70;;;20.60;99.90;;;;;;4591674;19;20379;-75
2023/08/31 02:40:21;;;;;;;5.30;2.90;;;20.60;99.90;;;;;;4593692;19;20096;-75
2023/08/31 02:41:58;;;;;;;4.53;2.75;;;20.60;99.90;;;;;;4593964;19;20019;-75
2023/08/31 02:43:33;;;;;;;4.22;2.75;;;20.50;99.90;;;;;;4592264;19;20003;-75
2023/08/31 02:45:09;;;;;;;5.75;2.97;;;20.50;99.90;;;;;;4593162;19;20015;-75
2023/08/31 02:46:45;;;;;;;5.35;3.38;;;20.60;99.90;;;;;;4593630;19;20090;-75
2023/08/31 02:48:19;;;;;;;5.55;3.38;;;20.50;99.90;;;;;;4593076;19;20003;-75
2023/08/31 02:49:54;;;;;;;4.32;2.83;;;20.60;99.90;;;;;;4593719;19;19999;-75
2023/08/31 02:51:29;;;;;;;4.00;2.90;;;20.50;99.90;;;;;;4594178;19;20010;-75
2023/08/31 02:53:04;;;;;;;6.43;2.90;;;20.50;99.90;;;;;;4593684;19;20003;-75
2023/08/31 02:54:38;;;;;;;4.63;3.03;;;20.50;99.90;;;;;;4592496;19;20010;-75
2023/08/31 02:56:14;;;;;;;6.80;3.15;;;20.50;99.90;;;;;;4593693;19;20002;-75
2023/08/31 02:57:47;;;;;;;5.43;2.78;;;20.50;99.90;;;;;;4593251;19;20006;-75
2023/08/31 02:59:21;;;;;;;4.45;2.72;;;20.50;99.90;;;;;;4590612;19;20528;-75
2023/08/31 03:01:07;;;;;;;4.53;2.72;;;20.50;99.90;;;;;;4592819;19;20002;-75
2023/08/31 03:02:41;;;;;;;5.80;2.67;;;20.50;99.90;;;;;;4592214;19;20006;-75
2023/08/31 03:04:17;;;;;;;5.25;2.85;;;20.50;99.90;;;;;;4593051;19;20006;-75
2023/08/31 03:05:58;;;;;;;4.82;2.80;;;20.50;99.90;;;;;;4593230;19;20069;-75
2023/08/31 03:07:32;;;;;;;4.35;2.83;;;20.50;99.90;;;;;;4591825;19;20460;-75
2023/08/31 03:09:07;;;;;;;5.28;3.38;;;20.50;99.90;;;;;;4592068;19;20371;-75
2023/08/31 03:10:42;;;;;;;4.05;2.75;;;20.50;99.90;;;;;;4591977;19;20006;-75
2023/08/31 03:12:17;;;;;;;4.18;2.70;;;20.50;99.90;;;;;;4592688;19;20044;-75
2023/08/31 03:13:51;;;;;;;5.65;2.70;;;20.50;99.90;;;;;;4592710;19;20006;-75
2023/08/31 03:15:26;;;;;;;4.53;2.33;;;20.50;99.90;;;;;;4591648;19;20006;-75
2023/08/31 03:17:01;;;;;;;3.22;2.22;;;20.50;99.90;;;;;;4592497;19;20074;-75
2023/08/31 03:18:36;;;;;;;4.13;2.63;;;20.50;99.90;;;;;;4592084;19;20341;-75
2023/08/31 03:20:13;;;;;;;4.03;2.58;;;20.50;99.90;;;;;;4593157;19;20379;-75
2023/08/31 03:21:47;;;;;;;5.80;3.05;;;20.50;99.90;;;;;;4593155;19;20006;-75
2023/08/31 03:23:22;;;;;;;5.65;3.22;;;20.50;99.90;;;;;;4592821;19;20022;-75
2023/08/31 03:24:58;;;;;;;5.15;2.58;;;20.50;99.90;;;;;;4591128;19;19995;-75
2023/08/31 03:26:33;;;;;;;6.30;3.22;;;20.50;99.90;;;;;;4592603;19;20010;-75
2023/08/31 03:28:08;;;;;;;3.50;2.47;;;20.50;99.90;;;;;;4592515;19;20010;-75
2023/08/31 03:29:44;;;;;;;4.65;2.83;;;20.50;99.90;;;;;;4592738;19;20043;-75
2023/08/31 03:31:19;;;;;;;5.15;3.40;;;20.50;99.90;;;;;;4591274;19;20003;-75
2023/08/31 03:32:53;;;;;;;5.20;2.92;;;20.50;99.90;;;;;;4592248;19;20009;-75
2023/08/31 03:34:33;;;;;;;4.60;2.60;;;20.50;99.90;;;;;;4590703;19;20029;-75
2023/08/31 03:36:07;;;;;;;5.82;2.85;;;20.50;99.90;;;;;;4592525;19;20005;-74
2023/08/31 03:37:42;;;;;;;4.43;2.95;;;20.50;99.90;;;;;;4592516;19;20002;-74
2023/08/31 03:39:18;;;;;;;5.15;2.90;;;20.50;99.90;;;;;;4591781;19;20033;-75
2023/08/31 03:40:57;;;;;;;5.45;3.13;;;20.50;99.90;;;;;;4591155;19;20011;-74
2023/08/31 03:42:31;;;;;;;4.05;2.78;;;20.50;99.90;;;;;;4592210;19;20007;-75
2023/08/31 03:44:10;;;;;;;5.55;3.00;;;20.50;99.90;;;;;;4591264;19;20444;-75
2023/08/31 03:45:45;;;;;;;5.10;3.03;;;20.50;99.90;;;;;;4592348;19;19999;-74
2023/08/31 03:47:19;;;;;;;3.72;2.95;;;20.60;99.90;;;;;;4592313;19;20002;-74
2023/08/31 03:48:56;;;;;;;5.00;2.95;;;20.70;99.90;;;;;;4591626;19;20010;-74
2023/08/31 03:50:31;;;;;;;6.60;3.13;;;20.80;99.90;;;;;;4592528;19;20089;-75
2023/08/31 03:52:05;;;;;;;4.82;2.90;;;20.90;99.90;;;;;;4592286;19;20025;-75
2023/08/31 03:53:40;;;;;;;5.22;2.50;;;20.90;99.90;;;;;;4592326;19;20013;-75
2023/08/31 03:55:14;;;;;;;4.45;2.80;;;21.00;99.90;;;;;;4591029;19;20309;-75
2023/08/31 03:56:49;;;;;;;4.32;3.20;;;21.10;99.90;;;;;;4592166;19;20003;-74
2023/08/31 03:58:26;;;;;;;9.00;3.47;;;21.20;99.90;;;;;;4591989;19;20402;-75
2023/08/31 04:00:00;;;;;;;6.10;2.95;;;21.20;99.90;;;;;;4592153;19;20009;-75
2023/08/31 04:01:35;;;;;;;4.55;3.10;;;21.20;99.90;;;;;;4592131;19;20026;-75
2023/08/31 04:03:11;;;;;;;4.20;2.75;;;21.20;99.90;;;;;;4592172;19;20305;-75
2023/08/31 04:04:45;;;;;;;5.68;3.10;;;21.20;99.90;;;;;;4590622;19;20464;-75
2023/08/31 04:06:19;;;;;;;7.00;2.70;;;21.20;99.90;;;;;;4591968;19;20456;-73
2023/08/31 04:07:54;;;;;;;5.18;2.97;;;21.30;99.90;;;;;;4592225;19;20070;-75
2023/08/31 04:09:30;;;;;;;4.13;2.53;;;21.40;99.90;;;;;;4590775;19;20309;-74
2023/08/31 04:11:05;;;;;;;3.65;2.40;;;21.50;99.90;;;;;;4591879;19;20019;-75
2023/08/31 04:12:42;;;;;;;4.45;2.85;;;21.50;99.90;;;;;;4591995;19;20442;-74
2023/08/31 04:14:18;;;;;;;5.20;2.67;;;21.60;99.90;;;;;;4591440;19;20014;-73
2023/08/31 04:15:55;;;;;;;4.65;2.67;;;21.60;99.90;;;;;;4592228;19;20417;-74
2023/08/31 04:17:31;;;;;;;6.22;2.35;;;21.60;99.90;;;;;;4590854;19;20460;-75
2023/08/31 04:19:06;;;;;;;3.85;2.50;;;21.70;99.90;;;;;;4590333;19;20371;-75
2023/08/31 04:20:53;;;;;;;3.22;2.33;;;21.70;99.90;;;;;;4592046;19;19995;-75
2023/08/31 04:22:28;;;;;;;4.43;2.03;;;21.70;99.90;;;;;;4592113;19;20324;-75
2023/08/31 04:24:02;;;;;;;6.43;2.40;;;21.70;99.90;;;;;;4591749;19;20026;-74
2023/08/31 04:25:36;;;;;;;5.53;2.83;;;21.70;99.90;;;;;;4591735;19;20009;-75
2023/08/31 04:27:12;;;;;;;5.63;3.05;;;21.70;99.90;;;;;;4591708;19;20074;-75
2023/08/31 04:28:46;;;;;;;5.57;3.28;;;21.60;99.90;;;;;;4590950;19;20437;-75
2023/08/31 04:30:20;;;;;;;4.32;3.20;;;21.60;99.90;;;;;;4591540;19;20003;-75
2023/08/31 04:31:55;;;;;;;5.82;3.33;;;21.60;99.90;;;;;;4591675;19;20290;-76
2023/08/31 04:33:30;;;;;;;5.97;2.83;;;21.60;99.90;;;;;;4591511;19;20003;-75
2023/08/31 04:35:07;;;;;;;6.93;3.15;;;21.60;99.90;;;;;;4590424;19;20016;-75
2023/08/31 04:36:42;;;;;;;5.75;3.70;;;21.60;99.90;;;;;;4593910;19;20015;-75
2023/08/31 04:38:18;;;;;;;6.60;3.85;;;21.60;99.90;;;;;;4594423;19;20009;-74
2023/08/31 04:39:53;;;;;;;6.95;3.60;;;21.70;99.90;;;;;;4596157;19;20007;-75
2023/08/31 04:41:29;;;;;;;5.35;3.28;;;21.70;99.90;;;;;;4596436;19;20292;-75
2023/08/31 04:43:05;;;;;;;10.80;3.80;;;21.80;99.90;;;;;;4596119;19;20057;-75
2023/08/31 04:44:39;;;;;;;6.60;3.78;;;21.80;99.90;;;;;;4594716;19;20021;-75
2023/08/31 04:46:15;;;;;;;7.90;3.47;;;21.90;99.90;;;;;;4595660;19;20020;-75
2023/08/31 04:47:51;;;;;;;5.53;3.60;;;22.00;99.90;;;;;;4596251;19;20299;-75
2023/08/31 04:49:26;;;;;;;9.05;3.80;;;22.00;99.90;;;;;;4594209;19;20077;-75
2023/08/31 04:51:03;;;;;;;5.68;3.88;;;22.10;99.90;;;;;;4595965;19;20006;-75
2023/08/31 04:52:38;;;;;;;7.00;3.55;;;22.10;99.90;;;;;;4596254;19;20007;-74
2023/08/31 04:54:13;;;;;;;7.18;4.30;;;22.20;99.90;;;;;;4595235;19;20422;-75
2023/08/31 04:55:48;;;;;;;6.72;4.10;;;22.20;99.90;;;;;;4596281;19;20425;-74
2023/08/31 04:57:23;;;;;;;6.38;3.85;;;22.20;99.90;;;;;;4596145;19;20008;-76
2023/08/31 04:58:58;;;;;;;8.50;4.68;;;22.30;99.90;;;;;;4594800;19;20003;-74
2023/08/31 05:00:33;;;;;;;6.40;4.30;;;22.20;99.90;;;;;;4596090;19;20013;-75
2023/08/31 05:02:07;;;;;;;5.20;3.95;;;22.30;99.90;;;;;;4595748;19;20016;-75
2023/08/31 05:03:41;;;;;;;6.68;4.07;;;22.30;99.90;;;;;;4595867;19;20003;-75
2023/08/31 05:05:20;;;;;;;8.77;3.88;;;22.30;99.90;;;;;;4594631;19;20006;-74
2023/08/31 05:06:54;;;;;;;5.88;3.92;;;22.30;99.90;;;;;;4595306;19;20011;-74
2023/08/31 05:08:28;;;;;;;5.57;3.97;;;22.30;99.90;;;;;;4594841;19;20027;-74
2023/08/31 05:10:04;;;;;;;9.23;4.78;;;22.30;99.90;;;;;;4595639;19;20458;-74
2023/08/31 05:11:38;;;;;;;8.27;4.45;;;22.30;99.90;;;;;;4595437;19;20002;-73
2023/08/31 05:13:12;;;;;;;6.97;4.25;;;22.30;99.90;;;;;;4594153;19;20013;-74
2023/08/31 05:14:49;;;;;;;8.25;4.38;;;22.20;99.90;;;;;;4594389;19;20030;-74
2023/08/31 05:16:23;;;;;;;6.93;4.10;;;22.20;99.90;;;;;;4595637;19;19999;-74
2023/08/31 05:17:57;;;;;;;5.82;4.10;;;22.20;99.90;;;;;;4595277;19;20006;-75
2023/08/31 05:19:32;;;;;;;6.03;4.20;;;22.20;99.90;;;;;;4593747;19;20018;-74
2023/08/31 05:21:06;;;;;;;8.60;5.07;;;22.10;99.90;;;;;;4595462;19;20061;-74
2023/08/31 05:22:41;;;;;;;6.78;4.70;;;22.10;99.90;;;;;;4595163;19;20011;-74
2023/08/31 05:24:17;;;;;;;8.65;4.70;;;22.10;99.90;;;;;;4595253;19;20489;-74
2023/08/31 05:25:53;;;;;;;6.78;4.63;;;22.10;99.90;;;;;;4595167;19;20023;-74
2023/08/31 05:27:28;;;;;;;7.45;4.25;;;22.10;99.90;;;;;;4595058;19;20005;-74
2023/08/31 05:29:07;;;;;;;9.95;4.43;;;22.00;99.90;;;;;;4593952;19;20074;-74
2023/08/31 05:30:51;;;;;;;8.98;4.60;;;22.00;99.90;;;;;;4594089;19;20329;-74
2023/08/31 05:32:32;;;;;;;8.00;4.18;;;22.00;99.90;;;;;;4594862;19;20002;-74
2023/08/31 05:34:07;;;;;;;8.18;4.40;;;21.90;99.90;;;;;;4593268;19;20046;-75
2023/08/31 05:35:43;;;;;;;6.65;4.28;;;21.90;99.90;;;;;;4594893;19;20062;-75
2023/08/31 05:37:17;;;;;;;6.60;4.65;;;21.90;99.90;;;;;;4594811;19;20319;-75
2023/08/31 05:38:54;;;;;;;6.03;4.25;;;21.90;99.90;;;;;;4594000;19;20027;-75
2023/08/31 05:40:27;;;;;;;6.95;5.43;;;21.90;99.90;;;;;;4594948;19;20388;-74
2023/08/31 05:42:02;;;;;;;7.55;5.45;;;21.10;99.90;;;;;;4594791;19;20002;-74
2023/08/31 05:43:40;;;;;;;7.00;6.22;;;19.30;99.90;;;;;;4594829;19;20066;-74
2023/08/31 05:45:14;;;;;;;8.40;6.10;;;18.40;99.90;;;;;;4593464;19;20007;-75
2023/08/31 05:46:47;;;;;;;7.80;5.88;;;18.00;99.90;;;;;;4593582;19;20002;-75
2023/08/31 05:48:23;;;;;;;6.82;5.50;;;17.90;99.90;;;;;;4592416;19;20033;-74
2023/08/31 05:49:57;;;;;;;8.02;5.95;;;17.80;99.90;;;;;;4594656;19;19998;-75
2023/08/31 05:51:31;;;;;;;6.10;5.13;;;17.80;99.90;;;;;;4594588;19;20002;-74
2023/08/31 05:53:08;;;;;;;6.57;5.85;;;17.70;99.90;;;;;;4593283;19;20006;-75
2023/08/31 05:54:42;;;;;;;8.18;6.03;;;17.70;99.90;;;;;;4593637;19;20002;-74
2023/08/31 05:56:17;;;;;;;6.07;5.07;;;17.70;99.90;;;;;;4594418;19;20307;-75
2023/08/31 05:57:52;;;;;;;6.97;5.53;;;17.70;99.90;;;;;;4594867;19;20023;-76
2023/08/31 05:59:29;;;;;;;5.45;4.70;;;17.70;99.90;;;;;;4592917;19;20002;-76
2023/08/31 06:01:04;;;;;;;8.55;6.32;;;17.60;99.90;;;;;;4594499;19;20003;-76
2023/08/31 06:02:41;;;;;;;7.00;6.28;;;17.60;99.90;;;;;;4593222;19;20010;-76
2023/08/31 06:04:15;;;;;;;7.00;5.78;;;17.60;99.90;;;;;;4594095;19;20025;-76
2023/08/31 06:05:50;;;;;;;6.43;5.53;;;17.60;99.90;;;;;;4592883;19;20024;-76
2023/08/31 06:07:26;;;;;;;6.40;5.38;;;17.60;99.90;;;;;;4594095;19;20033;-76
2023/08/31 06:09:00;;;;;;;7.50;6.00;;;17.60;99.90;;;;;;4592119;19;20003;-75
2023/08/31 06:10:34;;;;;;;9.20;6.18;;;17.60;99.90;;;;;;4593230;19;20354;-76
2023/08/31 06:12:10;;;;;;;7.40;5.97;;;17.60;99.90;;;;;;4594168;19;20014;-76
2023/08/31 06:13:44;;;;;;;8.45;5.72;;;17.60;99.90;;;;;;4594380;19;20455;-75
2023/08/31 06:15:18;;;;;;;7.95;6.72;;;17.60;99.90;;;;;;4592739;19;20003;-75
2023/08/31 06:16:54;;;;;;;7.50;6.30;;;17.60;99.90;;;;;;4594181;19;20024;-75
2023/08/31 06:18:27;;;;;;;8.30;5.80;;;17.60;99.90;;;;;;4593466;19;20318;-75
2023/08/31 06:20:02;;;;;;;7.57;5.20;;;17.90;99.90;;;;;;4594156;19;20021;-76
2023/08/31 06:21:37;;;;;;;8.43;4.65;;;18.20;99.90;;;;;;4592987;19;20441;-76
2023/08/31 06:23:11;;;;;;;6.93;4.57;;;18.60;99.90;;;;;;4593944;19;20002;-75
2023/08/31 06:24:45;;;;;;;9.13;5.50;;;18.90;99.90;;;;;;4593946;19;20006;-75
2023/08/31 06:26:23;;;;;;;8.77;5.15;;;19.10;99.90;;;;;;4594043;19;20079;-75
2023/08/31 06:27:58;;;;;;;7.65;4.95;;;19.40;99.90;;;;;;4592820;19;20015;-75
2023/08/31 06:29:32;;;;;;;7.22;4.90;;;19.60;99.90;;;;;;4593513;19;20002;-75
2023/08/31 06:31:08;;;;;;;10.30;5.38;;;19.70;99.90;;;;;;4594574;19;20424;-75
2023/08/31 06:32:47;;;;;;;9.65;5.18;;;19.80;99.90;;;;;;4593770;19;20003;-75
2023/08/31 06:34:22;;;;;;;7.53;5.03;;;19.90;99.90;;;;;;4593592;19;20006;-75
2023/08/31 06:35:58;;;;;;;7.50;5.43;;;20.00;99.90;;;;;;4593858;19;20066;-75
2023/08/31 06:37:32;;;;;;;5.40;4.20;;;20.00;99.90;;;;;;4593717;19;20367;-76
2023/08/31 06:39:07;;;;;;;7.82;4.72;;;20.10;99.90;;;;;;4592944;19;20428;-74
2023/08/31 06:40:45;;;;;;;7.25;4.60;;;20.20;99.90;;;;;;4593688;19;20010;-75
2023/08/31 06:42:21;;;;;;;6.75;4.30;;;20.20;99.90;;;;;;4593600;19;20006;-75
2023/08/31 06:43:56;;;;;;;5.70;4.18;;;20.30;99.90;;;;;;4593638;19;20010;-75
2023/08/31 06:45:32;;;;;;;7.80;4.50;;;20.30;99.90;;;;;;4592546;19;20013;-75
2023/08/31 06:47:06;;;;;;;5.88;4.45;;;20.30;99.90;;;;;;4593110;19;20037;-75
2023/08/31 06:48:40;;;;;;;8.02;4.32;;;20.40;99.90;;;;;;4593168;19;20002;-76
2023/08/31 06:50:16;;;;;;;5.43;3.70;;;20.40;99.90;;;;;;4593506;19;20007;-75
2023/08/31 06:51:51;;;;;;;5.15;3.85;;;20.40;99.90;;;;;;4593407;19;20002;-76
2023/08/31 06:53:24;;;;;;;6.72;4.43;;;20.50;99.90;;;;;;4593365;19;19998;-76
2023/08/31 06:55:00;;;;;;;8.98;4.90;;;20.50;99.90;;;;;;4592457;19;20010;-76
2023/08/31 06:56:34;;;;;;;7.32;4.68;;;20.60;99.90;;;;;;4593262;19;20002;-76
2023/08/31 06:58:08;;;;;;;7.55;4.78;;;20.60;99.90;;;;;;4593056;19;20319;-76
2023/08/31 06:59:44;;;;;;;7.10;4.68;;;20.60;99.90;;;;;;4591370;19;20020;-76
2023/08/31 07:01:19;;;;;;;6.40;4.28;;;20.60;99.90;;;;;;4592729;19;20436;-76
2023/08/31 07:02:52;;;;;;;5.00;3.47;;;20.60;99.90;;;;;;4593478;19;20006;-76
2023/08/31 07:04:30;;;;;;;5.72;3.55;;;20.60;99.90;;;;;;4593110;19;20014;-76
2023/08/31 07:06:04;;;;;;;4.32;2.78;;;20.70;99.90;;;;;;4593141;19;20015;-76
2023/08/31 07:07:38;;;;;;;4.60;3.10;;;20.70;99.90;;;;;;4593149;19;20004;-75
2023/08/31 07:09:14;;;;;;;5.05;3.38;;;20.70;99.90;;;;;;4592062;19;20003;-76
2023/08/31 07:10:48;;;;;;;4.80;2.97;;;20.70;99.90;;;;;;4593251;19;20016;-76
2023/08/31 07:12:23;;;;;;;4.95;3.13;;;20.70;99.90;;;;;;4591600;19;20029;-76
2023/08/31 07:13:59;;;;;;;5.13;2.78;;;20.70;99.90;;;;;;4592850;19;20361;-76
2023/08/31 07:15:33;;;;;;;4.28;3.30;;;20.70;99.90;;;;;;4591610;19;20432;-76
2023/08/31 07:17:07;;;;;;;4.10;2.88;;;20.70;99.90;;;;;;4592548;19;20006;-76
2023/08/31 07:18:43;;;;;;;4.70;2.60;;;20.70;99.90;;;;;;4592062;19;20037;-76
2023/08/31 07:20:17;;;;;;;6.53;2.80;;;20.70;99.90;;;;;;4591506;19;20006;-76
2023/08/31 07:21:51;;;;;;;5.95;3.58;;;20.70;99.90;;;;;;4592473;19;19998;-76
2023/08/31 07:23:27;;;;;;;5.35;3.13;;;20.70;99.90;;;;;;4592841;19;20011;-76
2023/08/31 07:25:03;;;;;;;4.60;2.83;;;20.70;99.90;;;;;;4592657;19;20006;-77
2023/08/31 07:26:39;;;;;;;5.63;2.90;;;20.70;99.90;;;;;;4592781;19;20011;-76
2023/08/31 07:28:14;;;;;;;5.00;2.85;;;20.80;99.90;;;;;;4592880;19;20002;-76
2023/08/31 07:29:48;;;;;;;6.57;3.25;;;20.80;99.90;;;;;;4591305;19;20006;-77
2023/08/31 07:31:22;;;;;;;5.55;3.75;;;20.80;99.90;;;;;;4592188;19;20002;-73
2023/08/31 07:32:59;;;;;;;4.28;3.20;;;20.80;99.90;;;;;;4591332;19;20021;-74
2023/08/31 07:34:35;;;;;;;5.22;2.88;;;20.70;99.90;;;;;;4591059;19;20387;-74
2023/08/31 07:36:09;;;;;;;5.10;3.25;;;20.80;99.90;;;;;;4592799;19;20309;-74
2023/08/31 07:37:44;;;;;;;5.03;3.40;;;20.80;99.90;;;;;;4592539;19;20099;-74
2023/08/31 07:39:19;;;;;;;4.85;3.60;;;20.80;99.90;;;;;;4590408;19;20006;-73
2023/08/31 07:40:53;;;;;;;5.57;3.55;;;20.70;99.90;;;;;;4592190;19;20006;-73
2023/08/31 07:42:29;;;;;;;7.35;3.70;;;20.70;99.90;;;;;;4591414;19;20011;-75
2023/08/31 07:44:03;;;;;;;3.58;2.85;;;20.80;99.90;;;;;;4592286;19;20006;-74
2023/08/31 07:45:37;;;;;;;5.53;3.97;;;20.80;99.90;;;;;;4591044;19;20489;-74
2023/08/31 07:47:13;;;;;;;5.72;3.45;;;20.80;99.90;;;;;;4592249;19;19998;-73
2023/08/31 07:48:50;;;;;;;4.40;3.55;;;20.80;99.90;;;;;;4591577;19;20059;-74
2023/08/31 07:50:24;;;;;;;8.18;3.78;;;20.80;99.90;;;;;;4592313;19;20385;-74
2023/08/31 07:51:59;;;;;;;5.90;5.05;;;20.80;99.90;;;;;;4590914;19;20070;-74
2023/08/31 07:53:34;;;;;;;5.90;4.82;;;20.80;99.90;;;;;;4592405;19;20020;-74
2023/08/31 07:55:08;;;;;;;6.25;3.60;;;20.70;99.90;;;;;;4590001;19;20084;-74
2023/08/31 07:56:44;;;;;;;8.52;4.05;;;20.80;99.90;;;;;;4592161;19;20005;-74
2023/08/31 07:58:19;;;;;;;4.38;3.58;;;20.80;99.90;;;;;;4591861;19;20005;-74
2023/08/31 07:59:54;;;;;;;4.22;3.40;;;20.80;99.90;;;;;;4591040;19;20009;-74
2023/08/31 08:01:29;;;;;;;5.15;3.72;;;20.80;99.90;;;;;;4591838;19;20006;-74
2023/08/31 08:03:05;;;;;;;5.15;2.83;;;20.80;99.90;;;;;;4592327;19;20082;-76
2023/08/31 08:04:40;;;;;;;6.82;3.17;;;20.80;99.90;;;;;;4591949;19;20006;-74
2023/08/31 08:06:16;;;;;;;5.15;3.67;;;20.90;99.90;;;;;;4592367;19;20006;-74
2023/08/31 08:07:50;;;;;;;5.60;3.55;;;20.90;99.90;;;;;;4592255;19;20010;-73
2023/08/31 08:09:25;;;;;;;5.10;3.60;;;20.90;99.90;;;;;;4591089;19;20003;-74
2023/08/31 08:11:02;;;;;;;5.28;3.72;;;20.90;99.90;;;;;;4592109;19;20002;-74
2023/08/31 08:12:40;;;;;;;6.07;4.18;;;20.90;99.90;;;;;;4597047;19;20425;-77
2023/08/31 08:14:16;;;;;;;5.57;3.97;;;20.90;99.90;;;;;;4596268;19;20002;-74
2023/08/31 08:15:51;;;;;;;4.85;2.97;;;20.90;99.90;;;;;;4596722;19;20430;-74
2023/08/31 08:17:25;;;;;;;5.85;4.25;;;20.90;99.90;;;;;;4595329;19;20058;-73
2023/08/31 08:18:59;;;;;;;5.70;3.88;;;20.90;99.90;;;;;;4593552;19;20034;-74
2023/08/31 08:20:35;;;;;;;7.20;4.25;;;21.00;99.90;;;;;;4596284;19;20481;-74
2023/08/31 08:22:10;;;;;;;5.70;3.65;;;21.00;99.90;;;;;;4596496;19;20024;-74
2023/08/31 08:23:45;;;;;;;5.38;3.63;;;21.00;99.90;;;;;;4596492;19;20007;-73
2023/08/31 08:25:21;;;;;;;4.60;3.42;;;21.00;99.90;;;;;;4595846;19;20081;-74
2023/08/31 08:26:55;;;;;;;4.38;3.17;;;21.00;99.90;;;;;;4596419;19;19994;-74
2023/08/31 08:28:29;;;;;;;5.15;3.58;;;21.00;99.90;;;;;;4595657;19;20006;-74
2023/08/31 08:30:05;;;;;;;5.32;3.38;;;21.00;99.90;;;;;;4596280;19;20452;-74
2023/08/31 08:31:40;;;;;;;4.75;3.30;;;21.00;99.90;;;;;;4596478;19;20022;-75
2023/08/31 08:33:14;;;;;;;3.15;2.50;;;21.00;99.90;;;;;;4596614;19;20296;-75
2023/08/31 08:34:50;;;;;;;4.15;3.30;;;21.00;99.90;;;;;;4595242;19;20006;-74
2023/08/31 08:36:24;;;;;;;5.93;4.28;;;21.00;99.90;;;;;;4596221;19;19995;-74
2023/08/31 08:37:58;;;;;;;5.35;4.10;;;21.00;99.90;;;;;;4596431;19;20002;-73